createdAt,value
2018-02-10T00:02:11.698Z,30.88
2018-02-10T00:04:41.831Z,32.30
2018-02-10T00:07:11.252Z,31.52
2018-02-10T00:09:40.634Z,32.25
2018-02-10T00:12:09.981Z,30.92
2018-02-10T00:14:39.328Z,32.65
2018-02-10T00:17:08.700Z,31.52
2018-02-10T00:19:38.086Z,31.58
2018-02-10T00:22:07.448Z,31.30
2018-02-10T00:24:37.716Z,31.83
2018-02-10T00:27:07.087Z,33.78
2018-02-10T00:29:36.444Z,31.15
2018-02-10T00:32:06.576Z,34.28
2018-02-10T00:34:36.697Z,32.67
2018-02-10T00:37:06.818Z,32.15
2018-02-10T00:39:36.961Z,32.60
2018-02-10T00:42:06.326Z,30.48
2018-02-10T00:44:36.469Z,32.08
2018-02-10T00:47:06.722Z,30.90
2018-02-10T00:49:36.088Z,30.33
2018-02-10T00:52:05.449Z,31.10
2018-02-10T00:54:34.820Z,32.72
2018-02-10T00:57:04.161Z,32.30
2018-02-10T00:59:33.531Z,32.08
2018-02-10T01:02:02.899Z,34.25
2018-02-10T01:04:33.020Z,31.85
2018-02-10T01:07:02.361Z,32.42
2018-02-10T01:09:31.738Z,34.58
2018-02-10T01:12:01.093Z,29.60
2018-02-10T01:14:30.471Z,32.25
2018-02-10T01:16:59.821Z,31.60
2018-02-10T01:19:29.980Z,30.37
2018-02-10T01:21:59.344Z,31.55
2018-02-10T01:24:29.463Z,31.10
2018-02-10T01:26:59.592Z,30.92
2018-02-10T01:29:29.810Z,30.23
2018-02-10T01:31:59.429Z,30.80
2018-02-10T01:34:28.785Z,30.60
2018-02-10T01:36:58.160Z,31.05
2018-02-10T01:39:27.515Z,30.40
2018-02-10T01:41:56.869Z,31.05
2018-02-10T01:44:26.258Z,31.12
2018-02-10T01:46:55.614Z,29.77
2018-02-10T01:49:24.982Z,31.23
2018-02-10T01:51:55.140Z,30.45
2018-02-10T01:54:24.503Z,32.22
2018-02-10T01:56:53.877Z,32.05
2018-02-10T01:59:23.245Z,33.80
2018-02-10T02:01:52.595Z,32.03
2018-02-10T02:04:21.970Z,32.00
2018-02-10T02:06:51.321Z,32.17
2018-02-10T02:09:20.696Z,33.97
2018-02-10T02:11:50.045Z,31.33
2018-02-10T02:14:20.180Z,31.15
2018-02-10T02:16:50.305Z,34.65
2018-02-10T02:19:19.689Z,32.92
2018-02-10T02:21:49.790Z,32.03
2018-02-10T02:24:19.169Z,34.10
2018-02-10T02:26:48.545Z,33.10
2018-02-10T02:29:17.907Z,32.72
2018-02-10T02:31:47.255Z,32.05
2018-02-10T02:34:16.620Z,32.55
2018-02-10T02:36:46.734Z,30.23
2018-02-10T02:39:16.871Z,31.00
2018-02-10T02:41:46.229Z,32.55
2018-02-10T02:44:15.585Z,31.30
2018-02-10T02:46:44.934Z,30.80
2018-02-10T02:49:14.287Z,33.03
2018-02-10T02:51:43.950Z,31.58
2018-02-10T02:54:13.337Z,34.65
2018-02-10T02:56:42.701Z,31.62
2018-02-10T02:59:12.053Z,33.72
2018-02-10T03:01:41.441Z,34.85
2018-02-10T03:04:10.812Z,30.23
2018-02-10T03:06:40.156Z,34.10
2018-02-10T03:09:09.506Z,30.65
2018-02-10T03:11:38.871Z,31.40
2018-02-10T03:14:08.371Z,31.27
2018-02-10T03:16:37.746Z,34.83
2018-02-10T03:19:07.102Z,29.80
2018-02-10T03:21:37.235Z,30.58
2018-02-10T03:24:06.590Z,31.55
2018-02-10T03:26:36.914Z,32.15
2018-02-10T03:29:06.261Z,31.48
2018-02-10T03:31:36.179Z,31.37
2018-02-10T03:34:05.541Z,32.60
2018-02-10T03:36:34.915Z,31.05
2018-02-10T03:39:04.272Z,32.13
2018-02-10T03:41:33.627Z,31.00
2018-02-10T03:44:02.987Z,31.58
2018-02-10T03:46:32.356Z,33.40
2018-02-10T03:49:01.702Z,32.05
2018-02-10T03:51:31.083Z,31.52
2018-02-10T03:54:01.212Z,33.75
2018-02-10T03:56:30.561Z,32.70
2018-02-10T03:59:00.696Z,31.80
2018-02-10T04:01:30.048Z,32.30
2018-02-10T04:03:59.422Z,33.25
2018-02-10T04:06:29.568Z,33.05
2018-02-10T04:08:58.919Z,29.20
2018-02-10T04:11:28.287Z,30.90
2018-02-10T04:13:57.648Z,29.35
2018-02-10T04:16:27.772Z,32.53
2018-02-10T04:18:57.125Z,36.20
2018-02-10T04:21:27.270Z,33.22
2018-02-10T04:23:56.611Z,31.90
2018-02-10T04:26:25.987Z,32.10
2018-02-10T04:28:56.127Z,30.77
2018-02-10T04:31:25.477Z,32.42
2018-02-10T04:33:55.637Z,29.10
2018-02-10T04:36:25.752Z,30.02
2018-02-10T04:38:55.883Z,30.65
2018-02-10T04:41:25.242Z,29.67
2018-02-10T04:43:54.610Z,31.27
2018-02-10T04:46:23.968Z,32.22
2018-02-10T04:48:54.112Z,30.80
2018-02-10T04:51:23.494Z,30.45
2018-02-10T04:53:53.608Z,29.52
2018-02-10T04:56:22.981Z,30.20
2018-02-10T04:58:52.351Z,31.65
2018-02-10T05:01:21.712Z,32.40
2018-02-10T05:03:51.101Z,31.15
2018-02-10T05:06:20.603Z,35.00
2018-02-10T05:08:49.963Z,33.85
2018-02-10T05:11:19.330Z,32.55
2018-02-10T05:13:49.447Z,32.55
2018-02-10T05:16:18.822Z,31.20
2018-02-10T05:18:48.182Z,31.02
2018-02-10T05:21:17.780Z,33.00
2018-02-10T05:23:47.163Z,31.90
2018-02-10T05:26:17.292Z,35.67
2018-02-10T05:28:47.426Z,31.80
2018-02-10T05:31:16.792Z,32.15
2018-02-10T05:33:46.139Z,31.60
2018-02-10T05:36:15.515Z,34.25
2018-02-10T05:38:46.452Z,31.83
2018-02-10T05:41:16.586Z,34.03
2018-02-10T05:43:45.941Z,33.88
2018-02-10T05:46:15.301Z,30.88
2018-02-10T05:48:44.698Z,33.10
2018-02-10T05:51:14.074Z,31.00
2018-02-10T05:53:43.624Z,30.67
2018-02-10T05:56:13.093Z,33.78
2018-02-10T05:58:43.231Z,31.15
2018-02-10T06:01:12.604Z,30.58
2018-02-10T06:03:42.015Z,30.65
2018-02-10T06:06:12.166Z,29.98
2018-02-10T06:08:41.537Z,31.20
2018-02-10T06:11:10.874Z,31.77
2018-02-10T06:13:40.270Z,32.20
2018-02-10T06:16:09.623Z,32.40
2018-02-10T06:18:38.999Z,31.48
2018-02-10T06:21:08.360Z,33.22
2018-02-10T06:23:37.700Z,31.02
2018-02-10T06:26:07.063Z,30.90
2018-02-10T06:28:36.414Z,31.62
2018-02-10T06:31:05.815Z,31.15
2018-02-10T06:33:35.218Z,30.88
2018-02-10T06:36:04.587Z,31.23
2018-02-10T06:38:34.097Z,31.95
2018-02-10T06:41:03.488Z,31.02
2018-02-10T06:43:32.924Z,32.13
2018-02-10T06:46:03.140Z,29.12
2018-02-10T06:48:32.489Z,31.65
2018-02-10T06:51:01.838Z,29.92
2018-02-10T06:53:31.225Z,31.05
2018-02-10T06:56:00.699Z,31.00
2018-02-10T06:58:30.083Z,29.40
2018-02-10T07:01:00.233Z,29.45
2018-02-10T07:03:29.636Z,29.63
2018-02-10T07:05:59.753Z,31.60
2018-02-10T07:08:29.880Z,29.90
2018-02-10T07:10:59.250Z,29.30
2018-02-10T07:13:28.631Z,30.10
2018-02-10T07:15:58.041Z,30.48
2018-02-10T07:18:27.427Z,31.40
2018-02-10T07:20:56.812Z,29.12
2018-02-10T07:23:26.176Z,28.98
2018-02-10T07:25:56.320Z,31.87
2018-02-10T07:28:25.676Z,30.17
2018-02-10T07:30:55.045Z,32.60
2018-02-10T07:33:24.425Z,31.95
2018-02-10T07:35:53.799Z,31.60
2018-02-10T07:38:23.161Z,30.98
2018-02-10T07:40:52.528Z,30.83
2018-02-10T07:43:21.891Z,32.40
2018-02-10T07:45:51.280Z,32.45
2018-02-10T07:48:20.648Z,32.60
2018-02-10T07:50:50.002Z,31.33
2018-02-10T07:53:19.405Z,33.75
2018-02-10T07:55:48.792Z,36.33
2018-02-10T07:58:18.176Z,33.10
2018-02-10T08:00:47.619Z,32.83
2018-02-10T08:03:17.025Z,32.78
2018-02-10T08:05:46.387Z,34.20
2018-02-10T08:08:15.813Z,34.53
2018-02-10T08:10:45.193Z,34.60
2018-02-10T08:13:14.572Z,37.20
2018-02-10T08:15:43.923Z,35.38
2018-02-10T08:18:13.286Z,34.72
2018-02-10T08:20:43.576Z,35.00
2018-02-10T08:23:13.788Z,34.40
2018-02-10T08:25:43.185Z,35.03
2018-02-10T08:28:13.324Z,36.70
2018-02-10T08:30:43.456Z,37.70
2018-02-10T08:33:13.062Z,35.67
2018-02-10T08:35:42.420Z,35.30
2018-02-10T08:38:11.783Z,34.63
2018-02-10T08:40:41.155Z,36.10
2018-02-10T08:43:10.658Z,34.97
2018-02-10T08:45:40.044Z,36.58
2018-02-10T08:48:09.420Z,34.50
2018-02-10T08:50:38.787Z,35.70
2018-02-10T08:53:08.160Z,33.80
2018-02-10T08:55:37.509Z,34.45
2018-02-10T08:58:06.889Z,34.22
2018-02-10T09:00:36.654Z,35.75
2018-02-10T09:03:06.026Z,34.10
2018-02-10T09:05:36.420Z,36.78
2018-02-10T09:08:05.783Z,33.35
2018-02-10T09:10:35.130Z,34.22
2018-02-10T09:13:04.476Z,38.05
2018-02-10T09:15:34.615Z,31.15
2018-02-10T09:18:03.959Z,32.90
2018-02-10T09:20:33.728Z,33.83
2018-02-10T09:23:03.117Z,33.95
2018-02-10T09:25:32.473Z,34.78
2018-02-10T09:28:02.819Z,32.58
2018-02-10T09:33:10.980Z,33.00
2018-02-10T09:35:40.350Z,34.92
2018-02-10T09:38:09.702Z,33.97
2018-02-10T09:40:39.072Z,34.40
2018-02-10T09:43:09.226Z,33.00
2018-02-10T09:45:39.350Z,31.98
2018-02-10T09:48:09.479Z,34.15
2018-02-10T09:50:38.835Z,35.97
2018-02-10T09:53:08.226Z,33.50
2018-02-10T09:55:37.569Z,32.20
2018-02-10T09:58:07.752Z,33.70
2018-02-10T10:00:37.416Z,34.53
2018-02-10T10:03:06.801Z,31.23
2018-02-10T10:05:36.957Z,30.12
2018-02-10T10:08:06.340Z,32.53
2018-02-10T10:10:35.696Z,31.52
2018-02-10T10:13:05.073Z,31.87
2018-02-10T10:15:34.412Z,33.80
2018-02-10T10:18:03.784Z,32.45
2018-02-10T10:20:33.144Z,28.77
2018-02-10T10:23:03.260Z,31.90
2018-02-10T10:25:32.667Z,29.10
2018-02-10T10:28:02.026Z,27.92
2018-02-10T10:30:31.423Z,28.08
2018-02-10T10:33:00.769Z,31.23
2018-02-10T10:35:30.913Z,29.83
2018-02-10T10:38:00.328Z,28.73
2018-02-10T10:40:29.716Z,29.60
2018-02-10T10:42:59.098Z,29.60
2018-02-10T10:45:28.448Z,29.70
2018-02-10T10:47:57.810Z,26.55
2018-02-10T10:50:27.896Z,28.05
2018-02-10T10:52:57.269Z,28.42
2018-02-10T10:55:27.395Z,29.50
2018-02-10T10:57:56.751Z,29.40
2018-02-10T11:00:26.124Z,28.35
2018-02-10T11:02:55.501Z,28.35
2018-02-10T11:05:24.855Z,30.23
2018-02-10T11:07:54.241Z,27.75
2018-02-10T11:10:23.604Z,28.77
2018-02-10T11:12:52.960Z,27.17
2018-02-10T11:15:22.345Z,29.27
2018-02-10T11:17:51.697Z,26.90
2018-02-10T11:20:21.093Z,27.85
2018-02-10T11:22:50.457Z,26.70
2018-02-10T11:25:20.627Z,27.23
2018-02-10T11:27:50.814Z,27.70
2018-02-10T11:30:20.181Z,27.80
2018-02-10T11:32:49.556Z,26.42
2018-02-10T11:35:18.961Z,23.52
2018-02-10T11:37:48.345Z,20.58
2018-02-10T11:40:17.703Z,21.00
2018-02-10T11:42:47.844Z,22.45
2018-02-10T11:45:18.001Z,22.48
2018-02-10T11:47:47.350Z,21.55
2018-02-10T11:50:17.495Z,19.70
2018-02-10T11:52:46.852Z,19.58
2018-02-10T11:55:16.461Z,19.62
2018-02-10T11:57:45.809Z,20.05
2018-02-10T12:00:15.178Z,19.40
2018-02-10T12:02:45.320Z,18.98
2018-02-10T12:05:14.736Z,19.83
2018-02-10T12:07:44.111Z,18.75
2018-02-10T12:10:15.103Z,17.73
2018-02-10T12:12:44.491Z,17.80
2018-02-10T12:15:13.853Z,17.75
2018-02-10T12:17:43.968Z,17.67
2018-02-10T12:20:14.110Z,17.90
2018-02-10T12:22:43.498Z,17.35
2018-02-10T12:25:13.613Z,16.02
2018-02-10T12:27:43.762Z,16.30
2018-02-10T12:30:13.129Z,17.50
2018-02-10T12:32:43.252Z,17.85
2018-02-10T12:35:12.628Z,17.12
2018-02-10T12:37:42.006Z,18.35
2018-02-10T12:40:11.378Z,18.70
2018-02-10T12:42:40.750Z,18.70
2018-02-10T12:45:10.995Z,19.27
2018-02-10T12:50:50.547Z,17.87
2018-02-10T12:53:20.673Z,18.77
2018-02-10T12:55:50.033Z,18.62
2018-02-10T12:58:20.164Z,15.80
2018-02-10T13:00:49.581Z,17.50
2018-02-10T13:03:18.937Z,18.60
2018-02-10T13:05:48.274Z,18.87
2018-02-10T13:08:18.363Z,17.83
2018-02-10T13:10:48.496Z,18.25
2018-02-10T13:13:17.866Z,16.30
2018-02-10T13:15:47.206Z,16.70
2018-02-10T13:18:16.590Z,14.80
2018-02-10T13:20:45.965Z,14.95
2018-02-10T13:23:15.344Z,16.52
2018-02-10T13:25:45.468Z,13.77
2018-02-10T13:28:16.523Z,14.48
2018-02-10T13:30:45.908Z,13.27
2018-02-10T13:33:16.027Z,13.75
2018-02-10T13:35:46.168Z,13.90
2018-02-10T13:38:15.522Z,15.20
2018-02-10T13:40:44.906Z,14.45
2018-02-10T13:43:14.321Z,15.98
2018-02-10T13:45:43.668Z,15.82
2018-02-10T13:48:30.820Z,16.80
2018-02-10T13:51:00.739Z,17.35
2018-02-10T13:53:30.193Z,15.88
2018-02-10T13:56:00.802Z,17.40
2018-02-10T13:58:30.160Z,18.27
2018-02-10T14:00:59.586Z,17.08
2018-02-10T14:03:28.963Z,17.25
2018-02-10T14:05:58.346Z,18.37
2018-02-10T14:08:27.703Z,17.25
2018-02-10T14:10:57.059Z,16.87
2018-02-10T14:13:26.405Z,18.50
2018-02-10T14:15:55.764Z,20.10
2018-02-10T14:18:25.125Z,19.27
2018-02-10T14:20:54.508Z,21.23
2018-02-10T14:23:23.892Z,22.62
2018-02-10T14:25:53.257Z,21.45
2018-02-10T14:28:23.419Z,22.40
2018-02-10T14:30:52.777Z,22.70
2018-02-10T14:33:22.911Z,21.27
2018-02-10T14:35:52.249Z,22.85
2018-02-10T14:38:21.618Z,21.67
2018-02-10T14:40:51.046Z,21.40
2018-02-10T14:43:20.443Z,23.25
2018-02-10T14:45:49.784Z,21.27
2018-02-10T14:48:19.983Z,22.67
2018-02-10T14:50:49.346Z,21.30
2018-02-10T14:53:18.699Z,21.58
2018-02-10T14:55:48.076Z,19.00
2018-02-10T14:58:18.240Z,19.12
2018-02-10T15:00:48.496Z,19.60
2018-02-10T15:03:17.884Z,19.23
2018-02-10T15:05:47.233Z,19.02
2018-02-10T15:08:16.677Z,18.87
2018-02-10T15:10:46.095Z,17.25
2018-02-10T15:13:17.241Z,20.52
2018-02-10T15:15:46.607Z,18.33
2018-02-10T15:18:16.012Z,17.85
2018-02-10T15:20:45.397Z,19.05
2018-02-10T15:23:15.519Z,19.05
2018-02-10T15:25:44.892Z,17.77
2018-02-10T15:28:14.296Z,18.50
2018-02-10T15:31:01.271Z,17.95
2018-02-10T15:33:48.310Z,19.30
2018-02-10T15:36:17.708Z,18.48
2018-02-10T15:38:47.075Z,19.55
2018-02-10T15:41:16.451Z,18.30
2018-02-10T15:43:45.812Z,19.70
2018-02-10T15:46:15.171Z,19.02
2018-02-10T15:48:44.544Z,18.30
2018-02-10T15:51:13.953Z,17.62
2018-02-10T15:53:43.378Z,18.05
2018-02-10T15:56:12.750Z,17.50
2018-02-10T15:58:42.107Z,18.83
2018-02-10T16:01:12.259Z,18.87
2018-02-10T16:03:41.638Z,19.62
2018-02-10T16:06:11.771Z,19.23
2018-02-10T16:08:41.177Z,17.83
2018-02-10T16:11:10.547Z,19.25
2018-02-10T16:13:39.916Z,21.25
2018-02-10T16:16:09.285Z,18.75
2018-02-10T16:18:38.655Z,17.85
2018-02-10T16:21:08.776Z,17.17
2018-02-10T16:23:38.927Z,19.12
2018-02-10T16:26:09.094Z,18.12
2018-02-10T16:28:38.473Z,19.75
2018-02-10T16:31:07.837Z,19.70
2018-02-10T16:33:38.664Z,18.65
2018-02-10T16:36:08.843Z,18.17
2018-02-10T16:38:38.194Z,17.52
2018-02-10T16:41:07.554Z,17.95
2018-02-10T16:43:36.940Z,18.35
2018-02-10T16:46:06.311Z,18.20
2018-02-10T16:48:35.692Z,17.55
2018-02-10T16:51:05.749Z,16.70
2018-02-10T16:53:35.107Z,19.67
2018-02-10T16:56:05.252Z,18.08
2018-02-10T16:58:34.664Z,19.10
2018-02-10T17:01:04.031Z,18.17
2018-02-10T17:03:33.384Z,16.98
2018-02-10T17:06:02.728Z,17.95
2018-02-10T17:08:32.889Z,17.73
2018-02-10T17:11:02.247Z,18.35
2018-02-10T17:13:31.624Z,20.58
2018-02-10T17:16:00.984Z,20.17
2018-02-10T17:18:30.343Z,20.30
2018-02-10T17:20:59.708Z,17.27
2018-02-10T17:23:29.423Z,17.55
2018-02-10T17:25:58.792Z,16.95
2018-02-10T17:28:28.933Z,18.30
2018-02-10T17:30:58.275Z,17.30
2018-02-10T17:33:27.671Z,18.20
2018-02-10T17:35:57.039Z,19.27
2018-02-10T17:38:26.407Z,19.58
2018-02-10T17:40:57.506Z,17.42
2018-02-10T17:43:27.909Z,19.20
2018-02-10T17:45:58.103Z,17.20
2018-02-10T17:48:28.247Z,17.35
2018-02-10T17:50:57.921Z,20.17
2018-02-10T17:53:27.356Z,18.10
2018-02-10T17:55:56.748Z,17.50
2018-02-10T17:58:26.147Z,17.20
2018-02-10T18:00:55.494Z,17.55
2018-02-10T18:03:24.901Z,18.48
2018-02-10T18:05:54.267Z,18.15
2018-02-10T18:08:23.644Z,16.35
2018-02-10T18:10:53.800Z,16.05
2018-02-10T18:13:23.154Z,18.10
2018-02-10T18:15:52.518Z,16.05
2018-02-10T18:18:21.894Z,15.40
2018-02-10T18:20:53.185Z,16.80
2018-02-10T18:23:22.574Z,15.15
2018-02-10T18:25:51.908Z,16.33
2018-02-10T18:28:21.492Z,15.73
2018-02-10T18:30:50.851Z,14.18
2018-02-10T18:33:20.222Z,15.40
2018-02-10T18:35:49.583Z,15.05
2018-02-10T18:38:18.953Z,16.05
2018-02-10T18:40:48.734Z,15.23
2018-02-10T18:43:18.251Z,15.52
2018-02-10T18:45:48.395Z,15.68
2018-02-10T18:48:17.797Z,16.12
2018-02-10T18:50:47.161Z,16.50
2018-02-10T18:53:16.522Z,15.77
2018-02-10T18:55:45.896Z,17.67
2018-02-10T18:58:16.013Z,16.98
2018-02-10T19:00:46.183Z,16.87
2018-02-10T19:03:15.542Z,14.85
2018-02-10T19:05:44.908Z,18.27
2018-02-10T19:08:14.251Z,19.30
2018-02-10T19:10:43.599Z,16.83
2018-02-10T19:13:12.994Z,17.92
2018-02-10T19:15:42.362Z,17.60
2018-02-10T19:18:12.088Z,16.90
2018-02-10T19:20:41.469Z,16.75
2018-02-10T19:23:10.858Z,18.00
2018-02-10T19:25:40.994Z,19.40
2018-02-10T19:28:10.342Z,18.37
2018-02-10T19:30:39.724Z,16.73
2018-02-10T19:33:09.103Z,17.50
2018-02-10T19:35:38.456Z,18.58
2018-02-10T19:38:07.818Z,16.55
2018-02-10T19:40:37.197Z,17.62
2018-02-10T19:43:07.330Z,17.70
2018-02-10T19:45:36.675Z,15.50
2018-02-10T19:48:06.068Z,19.80
2018-02-10T19:50:35.444Z,19.75
2018-02-10T19:53:04.834Z,19.30
2018-02-10T19:55:34.200Z,19.20
2018-02-10T19:58:04.377Z,18.00
2018-02-10T20:00:33.736Z,15.65
2018-02-10T20:03:03.895Z,18.85
2018-02-10T20:05:33.286Z,16.25
2018-02-10T20:08:02.686Z,17.83
2018-02-10T20:10:32.050Z,17.30
2018-02-10T20:13:01.407Z,15.85
2018-02-10T20:15:30.768Z,14.57
2018-02-10T20:18:00.907Z,15.23
2018-02-10T20:20:30.381Z,15.38
2018-02-10T20:22:59.739Z,15.65
2018-02-10T20:25:29.117Z,14.52
2018-02-10T20:27:58.472Z,14.75
2018-02-10T20:30:27.832Z,13.68
2018-02-10T20:32:57.214Z,13.90
2018-02-10T20:35:27.330Z,15.38
2018-02-10T20:37:57.483Z,13.57
2018-02-10T20:40:26.836Z,11.90
2018-02-10T20:42:56.980Z,12.37
2018-02-10T20:45:26.340Z,12.90
2018-02-10T20:47:55.703Z,13.85
2018-02-10T20:50:25.090Z,12.85
2018-02-10T20:52:54.457Z,11.25
2018-02-10T20:55:23.797Z,11.68
2018-02-10T20:57:53.180Z,12.48
2018-02-10T21:00:22.579Z,13.50
2018-02-10T21:02:52.751Z,11.50
2018-02-10T21:05:22.099Z,12.65
2018-02-10T21:07:52.286Z,13.60
2018-02-10T21:10:21.732Z,12.65
2018-02-10T21:12:51.946Z,14.55
2018-02-10T21:15:22.109Z,12.93
2018-02-10T21:17:51.472Z,11.93
2018-02-10T21:20:22.372Z,10.70
2018-02-10T21:22:52.536Z,11.07
2018-02-10T21:25:22.658Z,9.57
2018-02-10T21:27:52.787Z,11.82
2018-02-10T21:30:22.141Z,10.25
2018-02-10T21:32:51.546Z,12.27
2018-02-10T21:35:21.625Z,10.82
2018-02-10T21:37:51.006Z,10.52
2018-02-10T21:40:20.409Z,10.32
2018-02-10T21:42:49.751Z,10.52
2018-02-10T21:45:19.158Z,9.35
2018-02-10T21:47:48.511Z,9.88
2018-02-10T21:50:18.672Z,10.10
2018-02-10T21:52:48.033Z,10.50
2018-02-10T21:55:17.404Z,11.12
2018-02-10T21:57:47.409Z,10.50
2018-02-10T22:00:16.781Z,10.05
2018-02-10T22:02:46.279Z,10.13
2018-02-10T22:05:15.641Z,10.10
2018-02-10T22:07:45.017Z,9.55
2018-02-10T22:10:14.396Z,9.88
2018-02-10T22:12:43.765Z,10.30
2018-02-10T22:15:13.915Z,9.57
2018-02-10T22:17:43.274Z,9.93
2018-02-10T22:20:13.415Z,9.35
2018-02-10T22:22:42.784Z,9.90
2018-02-10T22:25:12.218Z,9.52
2018-02-10T22:27:41.608Z,10.57
2018-02-10T22:30:11.789Z,9.25
2018-02-10T22:32:41.189Z,9.63
2018-02-10T22:35:10.537Z,10.45
2018-02-10T22:37:40.222Z,9.15
2018-02-10T22:40:09.650Z,9.85
2018-02-10T22:42:39.184Z,10.65
2018-02-10T22:45:09.068Z,9.65
2018-02-10T22:47:39.234Z,10.40
2018-02-10T22:50:08.708Z,9.45
2018-02-10T22:52:38.562Z,9.38
2018-02-10T22:55:07.945Z,9.05
2018-02-10T22:57:37.308Z,9.48
2018-02-10T23:00:07.432Z,10.45
2018-02-10T23:02:37.554Z,9.10
2018-02-10T23:05:06.922Z,9.52
2018-02-10T23:07:36.305Z,8.90
2018-02-10T23:10:05.677Z,8.50
2018-02-10T23:12:35.044Z,9.50
2018-02-10T23:15:04.408Z,8.70
2018-02-10T23:17:33.742Z,8.73
2018-02-10T23:20:03.126Z,10.48
2018-02-10T23:22:33.185Z,9.65
2018-02-10T23:25:03.314Z,7.82
2018-02-10T23:27:32.660Z,7.90
2018-02-10T23:30:02.018Z,8.45
2018-02-10T23:32:31.395Z,9.23
2018-02-10T23:35:00.758Z,8.95
2018-02-10T23:37:30.189Z,8.60
2018-02-10T23:39:59.561Z,8.95
2018-02-10T23:42:28.938Z,8.73
2018-02-10T23:44:58.312Z,8.48
2018-02-10T23:47:28.430Z,9.40
2018-02-10T23:49:57.804Z,8.82
2018-02-10T23:52:27.159Z,9.63
2018-02-10T23:54:56.523Z,9.27
2018-02-10T23:57:25.882Z,9.00
2018-02-10T23:59:55.263Z,9.82
